sensor_id;sensor_type;location;lat;lon;timestamp;P1;durP1;ratioP1;P2;durP2;ratioP2
10479;SDS011;12789;42.610;23.040;2023-02-10T00:01:16;44.97;;;20.37;;
10479;SDS011;12789;42.610;23.040;2023-02-10T00:03:46;42.90;;;19.73;;
10479;SDS011;12789;42.610;23.040;2023-02-10T00:06:15;44.60;;;21.23;;
10479;SDS011;12789;42.610;23.040;2023-02-10T00:08:45;47.27;;;21.10;;
10479;SDS011;12789;42.610;23.040;2023-02-10T00:11:13;42.83;;;19.27;;
10479;SDS011;12789;42.610;23.040;2023-02-10T00:13:42;43.60;;;19.93;;
10479;SDS011;12789;42.610;23.040;2023-02-10T00:16:10;55.80;;;22.87;;
10479;SDS011;12789;42.610;23.040;2023-02-10T00:18:42;52.70;;;20.67;;
10479;SDS011;12789;42.610;23.040;2023-02-10T00:21:12;45.00;;;22.00;;
10479;SDS011;12789;42.610;23.040;2023-02-10T00:23:41;56.43;;;26.40;;
10479;SDS011;12789;42.610;23.040;2023-02-10T00:26:10;50.03;;;23.80;;
10479;SDS011;12789;42.610;23.040;2023-02-10T00:28:39;51.10;;;22.67;;
10479;SDS011;12789;42.610;23.040;2023-02-10T00:31:07;51.63;;;23.10;;
10479;SDS011;12789;42.610;23.040;2023-02-10T00:33:38;53.43;;;22.27;;
10479;SDS011;12789;42.610;23.040;2023-02-10T00:36:06;41.63;;;20.63;;
10479;SDS011;12789;42.610;23.040;2023-02-10T00:38:39;40.07;;;18.93;;
10479;SDS011;12789;42.610;23.040;2023-02-10T00:41:08;42.83;;;19.83;;
10479;SDS011;12789;42.610;23.040;2023-02-10T00:43:37;36.73;;;18.10;;
10479;SDS011;12789;42.610;23.040;2023-02-10T00:46:05;45.40;;;19.50;;
10479;SDS011;12789;42.610;23.040;2023-02-10T00:48:36;36.30;;;17.90;;
10479;SDS011;12789;42.610;23.040;2023-02-10T00:51:07;38.17;;;17.30;;
10479;SDS011;12789;42.610;23.040;2023-02-10T00:53:34;43.00;;;19.30;;
10479;SDS011;12789;42.610;23.040;2023-02-10T00:56:03;47.33;;;22.83;;
10479;SDS011;12789;42.610;23.040;2023-02-10T00:58:31;73.50;;;28.67;;
10479;SDS011;12789;42.610;23.040;2023-02-10T01:01:00;49.13;;;22.17;;
10479;SDS011;12789;42.610;23.040;2023-02-10T01:03:36;44.67;;;21.07;;
10479;SDS011;12789;42.610;23.040;2023-02-10T01:06:04;45.10;;;20.73;;
10479;SDS011;12789;42.610;23.040;2023-02-10T01:08:31;50.83;;;21.20;;
10479;SDS011;12789;42.610;23.040;2023-02-10T01:11:00;41.60;;;21.93;;
10479;SDS011;12789;42.610;23.040;2023-02-10T01:13:30;41.33;;;20.97;;
10479;SDS011;12789;42.610;23.040;2023-02-10T01:16:03;48.83;;;22.33;;
10479;SDS011;12789;42.610;23.040;2023-02-10T01:18:44;44.93;;;21.17;;
10479;SDS011;12789;42.610;23.040;2023-02-10T01:21:25;48.83;;;19.87;;
10479;SDS011;12789;42.610;23.040;2023-02-10T01:23:54;44.37;;;21.37;;
10479;SDS011;12789;42.610;23.040;2023-02-10T01:26:30;50.53;;;23.10;;
10479;SDS011;12789;42.610;23.040;2023-02-10T01:29:02;43.10;;;22.60;;
10479;SDS011;12789;42.610;23.040;2023-02-10T01:31:32;48.93;;;22.07;;
10479;SDS011;12789;42.610;23.040;2023-02-10T01:34:01;49.30;;;21.33;;
10479;SDS011;12789;42.610;23.040;2023-02-10T01:36:33;56.97;;;21.07;;
10479;SDS011;12789;42.610;23.040;2023-02-10T01:39:00;50.93;;;21.90;;
10479;SDS011;12789;42.610;23.040;2023-02-10T01:41:27;50.53;;;22.87;;
10479;SDS011;12789;42.610;23.040;2023-02-10T01:43:59;46.77;;;21.60;;
10479;SDS011;12789;42.610;23.040;2023-02-10T01:46:29;52.93;;;22.73;;
10479;SDS011;12789;42.610;23.040;2023-02-10T01:49:00;49.60;;;23.47;;
10479;SDS011;12789;42.610;23.040;2023-02-10T01:51:48;49.47;;;22.77;;
10479;SDS011;12789;42.610;23.040;2023-02-10T01:54:23;55.47;;;24.90;;
10479;SDS011;12789;42.610;23.040;2023-02-10T01:56:54;51.07;;;24.73;;
10479;SDS011;12789;42.610;23.040;2023-02-10T01:59:21;59.40;;;25.77;;
10479;SDS011;12789;42.610;23.040;2023-02-10T02:01:56;60.27;;;25.17;;
10479;SDS011;12789;42.610;23.040;2023-02-10T02:04:26;50.27;;;24.13;;
10479;SDS011;12789;42.610;23.040;2023-02-10T02:06:53;56.63;;;25.00;;
10479;SDS011;12789;42.610;23.040;2023-02-10T02:09:21;64.23;;;25.80;;
10479;SDS011;12789;42.610;23.040;2023-02-10T02:11:50;54.27;;;23.97;;
10479;SDS011;12789;42.610;23.040;2023-02-10T02:14:30;49.87;;;23.37;;
10479;SDS011;12789;42.610;23.040;2023-02-10T02:17:10;41.83;;;20.43;;
10479;SDS011;12789;42.610;23.040;2023-02-10T02:23:10;40.93;;;19.10;;
10479;SDS011;12789;42.610;23.040;2023-02-10T02:31:50;37.77;;;16.77;;
10479;SDS011;12789;42.610;23.040;2023-02-10T02:34:28;45.27;;;18.27;;
10479;SDS011;12789;42.610;23.040;2023-02-10T02:37:01;36.80;;;17.30;;
10479;SDS011;12789;42.610;23.040;2023-02-10T02:39:32;43.00;;;19.43;;
10479;SDS011;12789;42.610;23.040;2023-02-10T02:42:17;38.90;;;17.83;;
10479;SDS011;12789;42.610;23.040;2023-02-10T02:44:50;38.07;;;18.00;;
10479;SDS011;12789;42.610;23.040;2023-02-10T02:50:28;40.30;;;18.37;;
10479;SDS011;12789;42.610;23.040;2023-02-10T02:53:09;34.97;;;17.83;;
10479;SDS011;12789;42.610;23.040;2023-02-10T02:55:48;39.93;;;18.53;;
10479;SDS011;12789;42.610;23.040;2023-02-10T02:58:21;40.60;;;18.83;;
10479;SDS011;12789;42.610;23.040;2023-02-10T03:01:00;42.60;;;17.27;;
10479;SDS011;12789;42.610;23.040;2023-02-10T03:03:50;35.77;;;17.13;;
10479;SDS011;12789;42.610;23.040;2023-02-10T03:06:45;29.30;;;15.60;;
10479;SDS011;12789;42.610;23.040;2023-02-10T03:09:14;34.00;;;15.80;;
10479;SDS011;12789;42.610;23.040;2023-02-10T03:11:50;31.03;;;16.23;;
10479;SDS011;12789;42.610;23.040;2023-02-10T03:14:19;30.07;;;15.77;;
10479;SDS011;12789;42.610;23.040;2023-02-10T03:17:12;35.70;;;18.17;;
10479;SDS011;12789;42.610;23.040;2023-02-10T03:19:52;45.57;;;19.63;;
10479;SDS011;12789;42.610;23.040;2023-02-10T03:23:15;37.73;;;17.67;;
10479;SDS011;12789;42.610;23.040;2023-02-10T03:26:13;37.30;;;17.03;;
10479;SDS011;12789;42.610;23.040;2023-02-10T03:29:39;34.13;;;16.47;;
10479;SDS011;12789;42.610;23.040;2023-02-10T03:35:24;33.87;;;16.00;;
10479;SDS011;12789;42.610;23.040;2023-02-10T03:38:19;45.33;;;16.23;;
10479;SDS011;12789;42.610;23.040;2023-02-10T03:40:52;37.77;;;16.23;;
10479;SDS011;12789;42.610;23.040;2023-02-10T03:43:41;39.77;;;15.80;;
10479;SDS011;12789;42.610;23.040;2023-02-10T03:46:34;31.83;;;15.50;;
10479;SDS011;12789;42.610;23.040;2023-02-10T03:49:03;34.30;;;16.43;;
10479;SDS011;12789;42.610;23.040;2023-02-10T03:51:34;41.20;;;17.00;;
10479;SDS011;12789;42.610;23.040;2023-02-10T03:54:01;29.17;;;15.33;;
10479;SDS011;12789;42.610;23.040;2023-02-10T03:56:28;32.73;;;14.90;;
10479;SDS011;12789;42.610;23.040;2023-02-10T03:58:55;33.20;;;14.47;;
10479;SDS011;12789;42.610;23.040;2023-02-10T04:01:22;29.37;;;15.63;;
10479;SDS011;12789;42.610;23.040;2023-02-10T04:03:51;36.77;;;14.37;;
10479;SDS011;12789;42.610;23.040;2023-02-10T04:06:20;33.83;;;16.63;;
10479;SDS011;12789;42.610;23.040;2023-02-10T04:08:49;37.80;;;18.30;;
10479;SDS011;12789;42.610;23.040;2023-02-10T04:11:16;34.77;;;17.07;;
10479;SDS011;12789;42.610;23.040;2023-02-10T04:13:46;39.63;;;18.63;;
10479;SDS011;12789;42.610;23.040;2023-02-10T04:16:15;35.83;;;16.50;;
10479;SDS011;12789;42.610;23.040;2023-02-10T04:18:44;34.67;;;15.97;;
10479;SDS011;12789;42.610;23.040;2023-02-10T04:21:12;30.60;;;15.37;;
10479;SDS011;12789;42.610;23.040;2023-02-10T04:23:42;31.33;;;16.03;;
10479;SDS011;12789;42.610;23.040;2023-02-10T04:26:15;46.77;;;20.57;;
10479;SDS011;12789;42.610;23.040;2023-02-10T04:28:42;39.20;;;19.00;;
10479;SDS011;12789;42.610;23.040;2023-02-10T04:31:09;44.17;;;19.37;;
10479;SDS011;12789;42.610;23.040;2023-02-10T04:33:42;42.23;;;21.87;;
10479;SDS011;12789;42.610;23.040;2023-02-10T04:36:10;43.40;;;19.53;;
10479;SDS011;12789;42.610;23.040;2023-02-10T04:38:37;45.30;;;20.57;;
10479;SDS011;12789;42.610;23.040;2023-02-10T04:41:06;49.83;;;19.50;;
10479;SDS011;12789;42.610;23.040;2023-02-10T04:43:34;45.03;;;20.53;;
10479;SDS011;12789;42.610;23.040;2023-02-10T04:46:04;55.53;;;22.77;;
10479;SDS011;12789;42.610;23.040;2023-02-10T04:48:35;45.53;;;20.07;;
10479;SDS011;12789;42.610;23.040;2023-02-10T04:51:05;45.83;;;18.57;;
10479;SDS011;12789;42.610;23.040;2023-02-10T04:53:33;35.33;;;16.73;;
10479;SDS011;12789;42.610;23.040;2023-02-10T04:56:02;44.97;;;19.30;;
10479;SDS011;12789;42.610;23.040;2023-02-10T04:58:30;85.10;;;36.67;;
10479;SDS011;12789;42.610;23.040;2023-02-10T05:01:07;87.03;;;38.37;;
10479;SDS011;12789;42.610;23.040;2023-02-10T05:03:34;123.43;;;57.73;;
10479;SDS011;12789;42.610;23.040;2023-02-10T05:06:09;96.17;;;45.37;;
10479;SDS011;12789;42.610;23.040;2023-02-10T05:08:39;50.30;;;22.10;;
10479;SDS011;12789;42.610;23.040;2023-02-10T05:11:07;43.70;;;19.20;;
10479;SDS011;12789;42.610;23.040;2023-02-10T05:13:34;33.13;;;17.83;;
10479;SDS011;12789;42.610;23.040;2023-02-10T05:16:07;42.67;;;18.73;;
10479;SDS011;12789;42.610;23.040;2023-02-10T05:18:38;38.43;;;19.30;;
10479;SDS011;12789;42.610;23.040;2023-02-10T05:21:06;32.07;;;17.77;;
10479;SDS011;12789;42.610;23.040;2023-02-10T05:23:36;46.37;;;17.47;;
10479;SDS011;12789;42.610;23.040;2023-02-10T05:26:04;41.00;;;17.67;;
10479;SDS011;12789;42.610;23.040;2023-02-10T05:28:35;43.20;;;19.57;;
10479;SDS011;12789;42.610;23.040;2023-02-10T05:31:02;44.10;;;19.00;;
10479;SDS011;12789;42.610;23.040;2023-02-10T05:33:35;42.63;;;18.73;;
10479;SDS011;12789;42.610;23.040;2023-02-10T05:36:02;67.33;;;26.23;;
10479;SDS011;12789;42.610;23.040;2023-02-10T05:38:37;48.37;;;22.70;;
10479;SDS011;12789;42.610;23.040;2023-02-10T05:41:24;39.00;;;20.07;;
10479;SDS011;12789;42.610;23.040;2023-02-10T05:43:51;51.97;;;20.20;;
10479;SDS011;12789;42.610;23.040;2023-02-10T05:46:21;37.90;;;21.27;;
10479;SDS011;12789;42.610;23.040;2023-02-10T05:48:52;47.87;;;23.87;;
10479;SDS011;12789;42.610;23.040;2023-02-10T05:51:19;42.97;;;21.20;;
10479;SDS011;12789;42.610;23.040;2023-02-10T05:53:46;31.00;;;18.17;;
10479;SDS011;12789;42.610;23.040;2023-02-10T05:56:13;47.63;;;20.93;;
10479;SDS011;12789;42.610;23.040;2023-02-10T05:58:42;33.30;;;17.83;;
10479;SDS011;12789;42.610;23.040;2023-02-10T06:01:12;48.47;;;20.30;;
10479;SDS011;12789;42.610;23.040;2023-02-10T06:03:42;59.43;;;23.03;;
10479;SDS011;12789;42.610;23.040;2023-02-10T06:06:21;53.10;;;22.63;;
10479;SDS011;12789;42.610;23.040;2023-02-10T06:08:48;40.73;;;20.47;;
10479;SDS011;12789;42.610;23.040;2023-02-10T06:11:16;38.60;;;20.47;;
10479;SDS011;12789;42.610;23.040;2023-02-10T06:13:43;40.73;;;20.87;;
10479;SDS011;12789;42.610;23.040;2023-02-10T06:16:12;38.70;;;19.13;;
10479;SDS011;12789;42.610;23.040;2023-02-10T06:18:40;49.43;;;19.07;;
10479;SDS011;12789;42.610;23.040;2023-02-10T06:21:07;34.83;;;18.87;;
10479;SDS011;12789;42.610;23.040;2023-02-10T06:23:38;40.10;;;20.43;;
10479;SDS011;12789;42.610;23.040;2023-02-10T06:26:05;36.80;;;19.37;;
10479;SDS011;12789;42.610;23.040;2023-02-10T06:28:32;42.10;;;21.27;;
10479;SDS011;12789;42.610;23.040;2023-02-10T06:30:59;50.57;;;22.70;;
10479;SDS011;12789;42.610;23.040;2023-02-10T06:33:40;49.57;;;23.33;;
10479;SDS011;12789;42.610;23.040;2023-02-10T06:36:08;46.40;;;24.17;;
10479;SDS011;12789;42.610;23.040;2023-02-10T06:38:41;58.83;;;26.47;;
10479;SDS011;12789;42.610;23.040;2023-02-10T06:41:10;53.83;;;27.63;;
10479;SDS011;12789;42.610;23.040;2023-02-10T06:43:37;61.23;;;29.97;;
10479;SDS011;12789;42.610;23.040;2023-02-10T06:46:04;57.90;;;30.33;;
10479;SDS011;12789;42.610;23.040;2023-02-10T06:48:32;56.50;;;26.13;;
10479;SDS011;12789;42.610;23.040;2023-02-10T06:50:59;59.93;;;26.67;;
10479;SDS011;12789;42.610;23.040;2023-02-10T06:53:26;64.13;;;27.37;;
10479;SDS011;12789;42.610;23.040;2023-02-10T06:55:56;62.47;;;27.53;;
10479;SDS011;12789;42.610;23.040;2023-02-10T06:58:26;64.40;;;27.73;;
10479;SDS011;12789;42.610;23.040;2023-02-10T07:00:56;91.57;;;31.40;;
10479;SDS011;12789;42.610;23.040;2023-02-10T07:03:24;84.27;;;32.67;;
10479;SDS011;12789;42.610;23.040;2023-02-10T07:05:51;110.67;;;41.57;;
10479;SDS011;12789;42.610;23.040;2023-02-10T07:08:20;74.30;;;33.80;;
10479;SDS011;12789;42.610;23.040;2023-02-10T07:10:47;87.63;;;33.17;;
10479;SDS011;12789;42.610;23.040;2023-02-10T07:13:16;84.97;;;34.13;;
10479;SDS011;12789;42.610;23.040;2023-02-10T07:15:43;114.33;;;45.70;;
10479;SDS011;12789;42.610;23.040;2023-02-10T07:18:10;67.83;;;25.53;;
10479;SDS011;12789;42.610;23.040;2023-02-10T07:20:40;55.80;;;22.73;;
10479;SDS011;12789;42.610;23.040;2023-02-10T07:23:07;57.83;;;25.13;;
10479;SDS011;12789;42.610;23.040;2023-02-10T07:25:36;73.07;;;27.60;;
10479;SDS011;12789;42.610;23.040;2023-02-10T07:28:05;65.73;;;25.60;;
10479;SDS011;12789;42.610;23.040;2023-02-10T07:30:34;64.77;;;25.60;;
10479;SDS011;12789;42.610;23.040;2023-02-10T07:33:02;114.43;;;50.30;;
10479;SDS011;12789;42.610;23.040;2023-02-10T07:35:31;108.60;;;41.07;;
10479;SDS011;12789;42.610;23.040;2023-02-10T07:38:00;59.57;;;25.00;;
10479;SDS011;12789;42.610;23.040;2023-02-10T07:40:28;48.57;;;22.33;;
10479;SDS011;12789;42.610;23.040;2023-02-10T07:42:55;53.93;;;25.60;;
10479;SDS011;12789;42.610;23.040;2023-02-10T07:45:22;51.93;;;24.60;;
10479;SDS011;12789;42.610;23.040;2023-02-10T07:47:53;40.07;;;20.70;;
10479;SDS011;12789;42.610;23.040;2023-02-10T07:50:20;60.07;;;22.00;;
10479;SDS011;12789;42.610;23.040;2023-02-10T07:52:49;67.90;;;25.07;;
10479;SDS011;12789;42.610;23.040;2023-02-10T07:55:16;68.90;;;25.80;;
10479;SDS011;12789;42.610;23.040;2023-02-10T07:57:46;53.90;;;23.70;;
10479;SDS011;12789;42.610;23.040;2023-02-10T08:00:13;69.67;;;24.77;;
10479;SDS011;12789;42.610;23.040;2023-02-10T08:02:41;62.70;;;23.93;;
10479;SDS011;12789;42.610;23.040;2023-02-10T08:05:13;64.37;;;22.63;;
10479;SDS011;12789;42.610;23.040;2023-02-10T08:07:40;59.87;;;22.67;;
10479;SDS011;12789;42.610;23.040;2023-02-10T08:10:08;59.17;;;24.07;;
10479;SDS011;12789;42.610;23.040;2023-02-10T08:12:35;55.03;;;25.53;;
10479;SDS011;12789;42.610;23.040;2023-02-10T08:15:02;68.60;;;26.13;;
10479;SDS011;12789;42.610;23.040;2023-02-10T08:17:32;82.83;;;28.27;;
10479;SDS011;12789;42.610;23.040;2023-02-10T08:20:02;74.67;;;28.03;;
10479;SDS011;12789;42.610;23.040;2023-02-10T08:22:31;81.37;;;32.10;;
10479;SDS011;12789;42.610;23.040;2023-02-10T08:24:59;93.60;;;32.23;;
10479;SDS011;12789;42.610;23.040;2023-02-10T08:27:26;70.80;;;30.40;;
10479;SDS011;12789;42.610;23.040;2023-02-10T08:29:54;82.60;;;32.00;;
10479;SDS011;12789;42.610;23.040;2023-02-10T08:32:22;76.90;;;29.53;;
10479;SDS011;12789;42.610;23.040;2023-02-10T08:34:53;83.67;;;30.80;;
10479;SDS011;12789;42.610;23.040;2023-02-10T08:37:20;72.00;;;30.07;;
10479;SDS011;12789;42.610;23.040;2023-02-10T08:39:49;74.67;;;28.70;;
10479;SDS011;12789;42.610;23.040;2023-02-10T08:42:16;137.20;;;54.30;;
10479;SDS011;12789;42.610;23.040;2023-02-10T08:44:43;124.80;;;54.17;;
10479;SDS011;12789;42.610;23.040;2023-02-10T08:47:12;59.70;;;25.73;;
10479;SDS011;12789;42.610;23.040;2023-02-10T08:49:40;70.70;;;26.20;;
10479;SDS011;12789;42.610;23.040;2023-02-10T08:52:07;84.87;;;30.50;;
10479;SDS011;12789;42.610;23.040;2023-02-10T08:54:34;66.00;;;26.57;;
10479;SDS011;12789;42.610;23.040;2023-02-10T08:57:04;59.67;;;25.27;;
10479;SDS011;12789;42.610;23.040;2023-02-10T08:59:31;70.43;;;26.37;;
10479;SDS011;12789;42.610;23.040;2023-02-10T09:01:58;53.37;;;23.50;;
10479;SDS011;12789;42.610;23.040;2023-02-10T09:04:27;54.90;;;24.50;;
10479;SDS011;12789;42.610;23.040;2023-02-10T09:06:54;52.97;;;23.37;;
10479;SDS011;12789;42.610;23.040;2023-02-10T09:09:22;88.77;;;43.47;;
10479;SDS011;12789;42.610;23.040;2023-02-10T09:11:54;54.93;;;22.93;;
10479;SDS011;12789;42.610;23.040;2023-02-10T09:14:22;43.27;;;20.03;;
10479;SDS011;12789;42.610;23.040;2023-02-10T09:16:51;34.63;;;19.67;;
10479;SDS011;12789;42.610;23.040;2023-02-10T09:19:18;43.60;;;21.00;;
10479;SDS011;12789;42.610;23.040;2023-02-10T09:21:48;37.67;;;19.17;;
10479;SDS011;12789;42.610;23.040;2023-02-10T09:24:16;35.27;;;17.20;;
10479;SDS011;12789;42.610;23.040;2023-02-10T09:26:46;34.50;;;18.13;;
10479;SDS011;12789;42.610;23.040;2023-02-10T09:29:18;30.13;;;15.83;;
10479;SDS011;12789;42.610;23.040;2023-02-10T09:31:49;40.47;;;18.70;;
10479;SDS011;12789;42.610;23.040;2023-02-10T09:34:16;41.97;;;18.90;;
10479;SDS011;12789;42.610;23.040;2023-02-10T09:36:43;33.60;;;18.20;;
10479;SDS011;12789;42.610;23.040;2023-02-10T09:39:10;34.87;;;18.10;;
10479;SDS011;12789;42.610;23.040;2023-02-10T09:41:43;41.63;;;18.53;;
10479;SDS011;12789;42.610;23.040;2023-02-10T09:44:16;47.60;;;24.23;;
10479;SDS011;12789;42.610;23.040;2023-02-10T09:49:50;40.30;;;17.53;;
10479;SDS011;12789;42.610;23.040;2023-02-10T09:52:26;31.83;;;16.67;;
10479;SDS011;12789;42.610;23.040;2023-02-10T09:55:00;35.83;;;17.73;;
10479;SDS011;12789;42.610;23.040;2023-02-10T09:57:36;32.30;;;16.63;;
10479;SDS011;12789;42.610;23.040;2023-02-10T10:00:19;55.77;;;24.83;;
10479;SDS011;12789;42.610;23.040;2023-02-10T10:02:53;32.23;;;17.43;;
10479;SDS011;12789;42.610;23.040;2023-02-10T10:05:23;31.57;;;16.63;;
10479;SDS011;12789;42.610;23.040;2023-02-10T10:08:04;28.77;;;15.93;;
10479;SDS011;12789;42.610;23.040;2023-02-10T10:10:41;30.60;;;15.80;;
10479;SDS011;12789;42.610;23.040;2023-02-10T10:13:15;27.60;;;14.30;;
10479;SDS011;12789;42.610;23.040;2023-02-10T10:15:49;35.20;;;16.53;;
10479;SDS011;12789;42.610;23.040;2023-02-10T10:18:32;24.67;;;14.27;;
10479;SDS011;12789;42.610;23.040;2023-02-10T10:21:10;29.43;;;17.60;;
10479;SDS011;12789;42.610;23.040;2023-02-10T10:23:49;25.60;;;14.93;;
10479;SDS011;12789;42.610;23.040;2023-02-10T10:26:37;18.43;;;10.13;;
10479;SDS011;12789;42.610;23.040;2023-02-10T10:29:20;18.30;;;10.40;;
10479;SDS011;12789;42.610;23.040;2023-02-10T10:31:58;15.20;;;9.57;;
10479;SDS011;12789;42.610;23.040;2023-02-10T10:34:36;27.53;;;13.50;;
10479;SDS011;12789;42.610;23.040;2023-02-10T10:37:09;19.63;;;10.03;;
10479;SDS011;12789;42.610;23.040;2023-02-10T10:39:42;18.73;;;10.20;;
10479;SDS011;12789;42.610;23.040;2023-02-10T10:42:16;12.50;;;8.50;;
10479;SDS011;12789;42.610;23.040;2023-02-10T10:44:48;14.33;;;8.80;;
10479;SDS011;12789;42.610;23.040;2023-02-10T11:10:26;14.57;;;9.83;;
10479;SDS011;12789;42.610;23.040;2023-02-10T11:12:57;17.20;;;9.53;;
10479;SDS011;12789;42.610;23.040;2023-02-10T11:15:37;12.73;;;7.93;;
10479;SDS011;12789;42.610;23.040;2023-02-10T11:18:13;13.17;;;8.90;;
10479;SDS011;12789;42.610;23.040;2023-02-10T11:20:53;12.33;;;7.40;;
10479;SDS011;12789;42.610;23.040;2023-02-10T11:23:35;11.73;;;8.10;;
10479;SDS011;12789;42.610;23.040;2023-02-10T11:26:21;13.73;;;9.30;;
10479;SDS011;12789;42.610;23.040;2023-02-10T11:28:53;13.50;;;8.13;;
10479;SDS011;12789;42.610;23.040;2023-02-10T11:31:51;14.97;;;9.07;;
10479;SDS011;12789;42.610;23.040;2023-02-10T11:34:26;11.47;;;7.27;;
10479;SDS011;12789;42.610;23.040;2023-02-10T11:36:56;11.17;;;7.07;;
10479;SDS011;12789;42.610;23.040;2023-02-10T11:39:27;11.93;;;6.87;;
10479;SDS011;12789;42.610;23.040;2023-02-10T11:41:58;15.57;;;8.00;;
10479;SDS011;12789;42.610;23.040;2023-02-10T11:44:37;9.40;;;6.37;;
10479;SDS011;12789;42.610;23.040;2023-02-10T11:47:12;9.50;;;5.87;;
10479;SDS011;12789;42.610;23.040;2023-02-10T11:49:42;9.50;;;5.77;;
10479;SDS011;12789;42.610;23.040;2023-02-10T12:19:07;14.13;;;9.33;;
10479;SDS011;12789;42.610;23.040;2023-02-10T12:22:12;15.03;;;9.57;;
10479;SDS011;12789;42.610;23.040;2023-02-10T12:25:04;13.13;;;8.50;;
10479;SDS011;12789;42.610;23.040;2023-02-10T12:28:04;8.60;;;6.13;;
10479;SDS011;12789;42.610;23.040;2023-02-10T12:31:34;7.10;;;5.47;;
10479;SDS011;12789;42.610;23.040;2023-02-10T12:52:53;25.97;;;15.97;;
10479;SDS011;12789;42.610;23.040;2023-02-10T13:09:15;6.27;;;4.50;;
10479;SDS011;12789;42.610;23.040;2023-02-10T13:17:11;8.23;;;5.77;;
10479;SDS011;12789;42.610;23.040;2023-02-10T13:20:13;13.30;;;7.10;;
10479;SDS011;12789;42.610;23.040;2023-02-10T13:22:58;11.23;;;6.83;;
10479;SDS011;12789;42.610;23.040;2023-02-10T13:26:10;7.07;;;5.80;;
10479;SDS011;12789;42.610;23.040;2023-02-10T13:29:21;5.20;;;4.40;;
10479;SDS011;12789;42.610;23.040;2023-02-10T13:35:18;24.43;;;13.73;;
10479;SDS011;12789;42.610;23.040;2023-02-10T13:37:53;22.87;;;12.87;;
10479;SDS011;12789;42.610;23.040;2023-02-10T13:40:28;6.57;;;4.10;;
10479;SDS011;12789;42.610;23.040;2023-02-10T13:43:06;8.40;;;5.60;;
10479;SDS011;12789;42.610;23.040;2023-02-10T13:45:49;6.43;;;4.60;;
10479;SDS011;12789;42.610;23.040;2023-02-10T13:48:26;7.00;;;4.80;;
10479;SDS011;12789;42.610;23.040;2023-02-10T13:50:58;8.47;;;4.60;;
10479;SDS011;12789;42.610;23.040;2023-02-10T13:53:45;7.73;;;4.87;;
10479;SDS011;12789;42.610;23.040;2023-02-10T14:04:26;20.77;;;8.83;;
10479;SDS011;12789;42.610;23.040;2023-02-10T14:06:56;8.53;;;5.80;;
10479;SDS011;12789;42.610;23.040;2023-02-10T14:09:32;13.53;;;7.90;;
10479;SDS011;12789;42.610;23.040;2023-02-10T14:14:55;15.60;;;7.07;;
10479;SDS011;12789;42.610;23.040;2023-02-10T14:17:51;84.13;;;21.63;;
10479;SDS011;12789;42.610;23.040;2023-02-10T14:20:33;60.30;;;20.50;;
10479;SDS011;12789;42.610;23.040;2023-02-10T14:23:23;63.37;;;15.87;;
10479;SDS011;12789;42.610;23.040;2023-02-10T14:25:58;129.80;;;28.20;;
10479;SDS011;12789;42.610;23.040;2023-02-10T14:28:33;33.00;;;10.07;;
10479;SDS011;12789;42.610;23.040;2023-02-10T14:31:09;46.50;;;16.83;;
10479;SDS011;12789;42.610;23.040;2023-02-10T14:33:56;15.83;;;9.53;;
10479;SDS011;12789;42.610;23.040;2023-02-10T14:36:35;27.57;;;14.13;;
10479;SDS011;12789;42.610;23.040;2023-02-10T14:39:28;89.53;;;39.83;;
10479;SDS011;12789;42.610;23.040;2023-02-10T14:42:05;21.17;;;11.83;;
10479;SDS011;12789;42.610;23.040;2023-02-10T14:44:34;41.00;;;21.13;;
10479;SDS011;12789;42.610;23.040;2023-02-10T14:47:14;16.83;;;9.93;;
10479;SDS011;12789;42.610;23.040;2023-02-10T14:49:42;19.63;;;10.23;;
10479;SDS011;12789;42.610;23.040;2023-02-10T14:52:20;27.43;;;13.37;;
10479;SDS011;12789;42.610;23.040;2023-02-10T14:58:03;10.20;;;5.27;;
10479;SDS011;12789;42.610;23.040;2023-02-10T15:00:31;13.40;;;7.60;;
10479;SDS011;12789;42.610;23.040;2023-02-10T15:03:05;21.47;;;10.27;;
10479;SDS011;12789;42.610;23.040;2023-02-10T15:05:34;22.93;;;10.47;;
10479;SDS011;12789;42.610;23.040;2023-02-10T15:08:16;12.63;;;8.03;;
10479;SDS011;12789;42.610;23.040;2023-02-10T15:10:48;15.07;;;8.67;;
10479;SDS011;12789;42.610;23.040;2023-02-10T15:13:22;13.93;;;8.03;;
10479;SDS011;12789;42.610;23.040;2023-02-10T15:15:53;14.20;;;8.33;;
10479;SDS011;12789;42.610;23.040;2023-02-10T15:18:21;11.53;;;6.67;;
10479;SDS011;12789;42.610;23.040;2023-02-10T15:20:51;9.07;;;5.80;;
10479;SDS011;12789;42.610;23.040;2023-02-10T15:23:27;9.93;;;5.90;;
10479;SDS011;12789;42.610;23.040;2023-02-10T15:26:01;11.60;;;6.10;;
10479;SDS011;12789;42.610;23.040;2023-02-10T15:28:30;9.70;;;6.03;;
10479;SDS011;12789;42.610;23.040;2023-02-10T15:30:59;40.67;;;23.63;;
10479;SDS011;12789;42.610;23.040;2023-02-10T15:33:32;16.87;;;8.63;;
10479;SDS011;12789;42.610;23.040;2023-02-10T15:36:10;14.70;;;8.10;;
10479;SDS011;12789;42.610;23.040;2023-02-10T15:38:46;12.83;;;8.43;;
10479;SDS011;12789;42.610;23.040;2023-02-10T15:41:40;10.77;;;6.37;;
10479;SDS011;12789;42.610;23.040;2023-02-10T15:44:37;9.90;;;6.67;;
10479;SDS011;12789;42.610;23.040;2023-02-10T15:47:23;10.33;;;6.97;;
10479;SDS011;12789;42.610;23.040;2023-02-10T15:50:03;12.80;;;6.53;;
10479;SDS011;12789;42.610;23.040;2023-02-10T15:52:42;11.33;;;6.43;;
10479;SDS011;12789;42.610;23.040;2023-02-10T15:55:55;15.40;;;7.43;;
10479;SDS011;12789;42.610;23.040;2023-02-10T15:58:30;15.70;;;7.67;;
10479;SDS011;12789;42.610;23.040;2023-02-10T16:01:05;13.73;;;6.83;;
10479;SDS011;12789;42.610;23.040;2023-02-10T16:03:43;18.67;;;9.00;;
10479;SDS011;12789;42.610;23.040;2023-02-10T16:12:18;50.13;;;25.70;;
10479;SDS011;12789;42.610;23.040;2023-02-10T16:14:47;48.13;;;25.37;;
10479;SDS011;12789;42.610;23.040;2023-02-10T16:17:18;43.40;;;21.57;;
10479;SDS011;12789;42.610;23.040;2023-02-10T16:19:48;50.63;;;28.37;;
10479;SDS011;12789;42.610;23.040;2023-02-10T16:22:23;56.77;;;27.97;;
10479;SDS011;12789;42.610;23.040;2023-02-10T16:25:42;62.83;;;26.10;;
10479;SDS011;12789;42.610;23.040;2023-02-10T16:44:27;92.40;;;42.47;;
10479;SDS011;12789;42.610;23.040;2023-02-10T16:47:08;75.43;;;37.83;;
10479;SDS011;12789;42.610;23.040;2023-02-10T16:50:28;76.63;;;38.70;;
10479;SDS011;12789;42.610;23.040;2023-02-10T16:56:48;100.00;;;44.37;;
10479;SDS011;12789;42.610;23.040;2023-02-10T16:59:58;219.17;;;94.93;;
10479;SDS011;12789;42.610;23.040;2023-02-10T17:02:49;101.63;;;45.87;;
10479;SDS011;12789;42.610;23.040;2023-02-10T17:05:43;90.17;;;42.83;;
10479;SDS011;12789;42.610;23.040;2023-02-10T17:08:41;86.27;;;41.03;;
10479;SDS011;12789;42.610;23.040;2023-02-10T17:11:36;83.00;;;40.33;;
10479;SDS011;12789;42.610;23.040;2023-02-10T17:14:35;92.20;;;42.40;;
10479;SDS011;12789;42.610;23.040;2023-02-10T17:17:37;117.73;;;49.57;;
10479;SDS011;12789;42.610;23.040;2023-02-10T17:20:34;133.40;;;57.60;;
10479;SDS011;12789;42.610;23.040;2023-02-10T17:23:23;282.40;;;127.50;;